Time;durP1;ratioP1;P1;durP2;ratioP2;P2;SDS_P1;SDS_P2;PMS_P1;PMS_P2;Temp;Humidity;BMP_temperature;BMP_pressure;BME280_temperature;BME280_humidity;BME280_pressure;Samples;Min_cycle;Max_cycle;Signal;HPM_P1;HPM_P2
2024/04/19 00:01:34;;;;;;;;;;;2.20;99.90;;;;;;8559682;27;19936;-85
2024/04/19 00:05:44;;;;;;;;;;;2.60;99.90;;;;;;8574195;27;19928;-86
2024/04/19 00:09:45;;;;;;;;;;;2.60;99.90;;;;;;8584038;27;19932;-86
2024/04/19 00:13:45;;;;;;;;;;;2.70;99.90;;;;;;8565830;27;19928;-84
2024/04/19 00:17:49;;;;;;;;;;;2.60;99.90;;;;;;8587465;27;22107;-85
2024/04/19 00:21:49;;;;;;;;;;;2.80;99.90;;;;;;8570225;27;19943;-85
2024/04/19 00:25:53;;;;;;;;;;;2.90;99.90;;;;;;8577981;27;20281;-83
2024/04/19 00:29:59;;;;;;;;;;;3.00;99.90;;;;;;8579530;27;19935;-82
2024/04/19 00:34:00;;;;;;;;;;;3.20;99.90;;;;;;8566690;27;19936;-83
2024/04/19 00:38:01;;;;;;;;;;;3.20;99.90;;;;;;8593423;27;19936;-84
2024/04/19 00:42:01;;;;;;;;;;;3.20;99.90;;;;;;8565501;27;19929;-85
2024/04/19 00:46:04;;;;;;;;;;;3.20;99.90;;;;;;8602257;27;19929;-85
2024/04/19 00:50:05;;;;;;;;;;;3.20;99.90;;;;;;8564483;27;19936;-85
2024/04/19 00:54:05;;;;;;;;;;;3.30;99.90;;;;;;8599496;27;19928;-84
2024/04/19 00:58:06;;;;;;;;;;;3.20;99.90;;;;;;8593588;27;20289;-84
2024/04/19 01:02:07;;;;;;;;;;;3.10;99.90;;;;;;8604001;27;19928;-83
2024/04/19 01:06:07;;;;;;;;;;;2.90;99.90;;;;;;8605974;27;19935;-84
2024/04/19 01:10:08;;;;;;;;;;;3.30;99.90;;;;;;8586114;27;19957;-83
2024/04/19 01:14:08;;;;;;;;;;;2.90;99.90;;;;;;8561598;27;19928;-82
2024/04/19 01:18:09;;;;;;;;;;;2.80;99.90;;;;;;8594890;27;20018;-83
2024/04/19 01:22:10;;;;;;;;;;;2.90;99.90;;;;;;8581751;27;19928;-83
2024/04/19 01:26:10;;;;;;;;;;;2.90;99.90;;;;;;8589152;27;19952;-83
2024/04/19 01:30:11;;;;;;;;;;;2.80;99.90;;;;;;8590754;27;19929;-83
2024/04/19 01:34:11;;;;;;;;;;;2.70;99.90;;;;;;8568796;27;19935;-84
2024/04/19 01:38:12;;;;;;;;;;;2.60;99.90;;;;;;8576613;27;20011;-82
2024/04/19 01:42:12;;;;;;;;;;;2.70;99.90;;;;;;8584166;27;19928;-82
2024/04/19 01:46:13;;;;;;;;;;;2.80;99.90;;;;;;8563104;27;19929;-84
2024/04/19 01:50:13;;;;;;;;;;;2.60;99.90;;;;;;8565472;27;19929;-84
2024/04/19 01:54:16;;;;;;;;;;;2.70;99.90;;;;;;8579359;27;19935;-84
2024/04/19 01:58:17;;;;;;;;;;;2.80;99.90;;;;;;8576533;27;19935;-86
2024/04/19 02:02:17;;;;;;;;;;;3.00;99.90;;;;;;8601273;27;19929;-85
2024/04/19 02:06:18;;;;;;;;;;;3.30;99.90;;;;;;8577109;27;20000;-83
2024/04/19 02:10:18;;;;;;;;;;;3.40;99.90;;;;;;8581155;27;19929;-86
2024/04/19 02:14:19;;;;;;;;;;;3.40;99.90;;;;;;8573335;27;20059;-87
2024/04/19 02:18:19;;;;;;;;;;;3.30;99.90;;;;;;8593621;27;20294;-85
2024/04/19 02:22:20;;;;;;;;;;;3.30;99.90;;;;;;8575145;27;19935;-85
2024/04/19 02:26:20;;;;;;;;;;;3.20;99.90;;;;;;8566223;27;20418;-84
2024/04/19 02:34:43;;;;;;;;;;;2.90;99.90;;;;;;8595277;27;19935;-84
2024/04/19 02:38:43;;;;;;;;;;;2.90;99.90;;;;;;8563549;27;19936;-84
2024/04/19 02:42:44;;;;;;;;;;;2.80;99.90;;;;;;8557880;27;19935;-85
2024/04/19 02:46:44;;;;;;;;;;;2.90;99.90;;;;;;8565227;27;20542;-83
2024/04/19 02:50:49;;;;;;;;;;;2.90;99.90;;;;;;8573677;27;19933;-85
2024/04/19 02:54:50;;;;;;;;;;;2.70;99.90;;;;;;8567271;27;20375;-85
2024/04/19 02:58:52;;;;;;;;;;;2.60;99.90;;;;;;8560912;27;19935;-84
2024/04/19 03:02:52;;;;;;;;;;;2.70;99.90;;;;;;8592643;27;19929;-85
2024/04/19 03:06:53;;;;;;;;;;;2.70;99.90;;;;;;8571326;27;20565;-84
2024/04/19 03:10:53;;;;;;;;;;;2.60;99.90;;;;;;8578554;27;20539;-82
2024/04/19 03:14:54;;;;;;;;;;;2.60;99.90;;;;;;8587370;27;19955;-84
2024/04/19 03:18:54;;;;;;;;;;;2.60;99.90;;;;;;8572157;27;19936;-84
2024/04/19 03:22:54;;;;;;;;;;;2.70;99.90;;;;;;8579313;27;19928;-83
2024/04/19 03:26:55;;;;;;;;;;;2.70;99.90;;;;;;8587969;27;19935;-83
2024/04/19 03:30:55;;;;;;;;;;;2.60;99.90;;;;;;8600933;27;19996;-84
2024/04/19 03:34:56;;;;;;;;;;;2.80;99.90;;;;;;8572949;27;19935;-84
2024/04/19 03:38:56;;;;;;;;;;;2.80;99.90;;;;;;8557676;27;19959;-84
2024/04/19 03:42:58;;;;;;;;;;;2.90;99.90;;;;;;8563795;27;19999;-84
2024/04/19 03:46:59;;;;;;;;;;;3.10;99.90;;;;;;8565904;27;19935;-83
2024/04/19 03:50:59;;;;;;;;;;;3.10;99.90;;;;;;8574098;27;19960;-83
2024/04/19 03:55:00;;;;;;;;;;;3.20;99.90;;;;;;8583875;27;19943;-84
2024/04/19 03:59:01;;;;;;;;;;;3.30;99.90;;;;;;8556958;27;929107;-85
2024/04/19 04:03:01;;;;;;;;;;;3.20;99.90;;;;;;8552882;27;19944;-85
2024/04/19 04:07:02;;;;;;;;;;;3.30;99.90;;;;;;8573796;27;19936;-84
2024/04/19 04:11:02;;;;;;;;;;;3.30;99.90;;;;;;8561833;27;19964;-85
2024/04/19 04:15:04;;;;;;;;;;;3.30;99.90;;;;;;8573079;27;19929;-85
2024/04/19 04:19:04;;;;;;;;;;;3.20;99.90;;;;;;8590345;27;19977;-83
2024/04/19 04:23:04;;;;;;;;;;;3.30;99.90;;;;;;8597624;27;19928;-84
2024/04/19 04:27:05;;;;;;;;;;;3.20;99.90;;;;;;8567129;27;20382;-84
2024/04/19 04:31:08;;;;;;;;;;;3.30;99.90;;;;;;8571998;27;19928;-85
2024/04/19 04:35:08;;;;;;;;;;;3.30;99.90;;;;;;8569450;27;19935;-82
2024/04/19 04:39:09;;;;;;;;;;;3.40;99.90;;;;;;8569858;27;19928;-84
2024/04/19 04:43:09;;;;;;;;;;;3.40;99.90;;;;;;8566894;27;19929;-83
2024/04/19 04:47:09;;;;;;;;;;;3.40;99.90;;;;;;8569695;27;19928;-85
2024/04/19 04:51:10;;;;;;;;;;;3.50;99.90;;;;;;8577656;27;19940;-83
2024/04/19 04:55:11;;;;;;;;;;;3.50;99.90;;;;;;8579339;27;19968;-84
2024/04/19 04:59:12;;;;;;;;;;;3.50;99.90;;;;;;8598859;27;19935;-85
2024/04/19 05:03:12;;;;;;;;;;;3.60;99.90;;;;;;8594725;27;19928;-84
2024/04/19 05:07:13;;;;;;;;;;;3.80;99.90;;;;;;8574215;27;19940;-85
2024/04/19 05:11:13;;;;;;;;;;;3.80;99.90;;;;;;8568500;27;19943;-84
2024/04/19 05:15:14;;;;;;;;;;;3.80;99.90;;;;;;8593705;27;19929;-84
2024/04/19 05:19:14;;;;;;;;;;;3.80;99.90;;;;;;8573627;27;20012;-83
2024/04/19 05:23:15;;;;;;;;;;;3.90;99.90;;;;;;8600114;27;20020;-82
2024/04/19 05:27:15;;;;;;;;;;;3.90;99.90;;;;;;8590268;27;19928;-83
2024/04/19 05:31:16;;;;;;;;;;;4.00;99.90;;;;;;8591026;27;19929;-85
2024/04/19 05:35:16;;;;;;;;;;;4.00;99.90;;;;;;8569256;27;19935;-84
2024/04/19 05:39:17;;;;;;;;;;;4.00;99.90;;;;;;8577057;27;20476;-85
2024/04/19 05:43:18;;;;;;;;;;;4.00;99.90;;;;;;8569006;27;19928;-84
2024/04/19 05:47:18;;;;;;;;;;;4.10;99.90;;;;;;8573222;27;19935;-85
2024/04/19 05:51:19;;;;;;;;;;;4.10;99.90;;;;;;8564449;27;19929;-84
2024/04/19 05:55:19;;;;;;;;;;;4.20;99.90;;;;;;8572385;27;19928;-84
2024/04/19 05:59:20;;;;;;;;;;;4.40;99.90;;;;;;8573083;27;19940;-83
2024/04/19 06:03:20;;;;;;;;;;;4.30;99.90;;;;;;8564983;27;19928;-84
2024/04/19 06:07:24;;;;;;;;;;;4.30;99.90;;;;;;8588552;27;19936;-85
2024/04/19 06:11:24;;;;;;;;;;;4.40;99.90;;;;;;8561335;27;19935;-83
2024/04/19 06:15:25;;;;;;;;;;;4.50;99.90;;;;;;8588771;27;19935;-83
2024/04/19 06:19:25;;;;;;;;;;;4.40;99.90;;;;;;8589298;27;20008;-86
2024/04/19 06:23:26;;;;;;;;;;;4.60;99.90;;;;;;8566718;27;19928;-84
2024/04/19 06:27:26;;;;;;;;;;;4.60;99.90;;;;;;8599613;27;20308;-84
2024/04/19 06:31:27;;;;;;;;;;;4.80;99.90;;;;;;8566936;27;20404;-86
2024/04/19 06:35:27;;;;;;;;;;;4.90;99.90;;;;;;8581034;27;19929;-84
2024/04/19 06:39:27;;;;;;;;;;;5.00;99.90;;;;;;8553127;27;20298;-83
2024/04/19 06:43:28;;;;;;;;;;;5.20;99.90;;;;;;8566157;27;19936;-84
2024/04/19 06:47:28;;;;;;;;;;;5.40;99.90;;;;;;8578542;27;19960;-83
2024/04/19 06:51:29;;;;;;;;;;;5.40;99.90;;;;;;8561157;27;19929;-83
2024/04/19 06:55:29;;;;;;;;;;;5.40;99.90;;;;;;8596795;27;20337;-84
2024/04/19 06:59:30;;;;;;;;;;;5.40;99.90;;;;;;8585910;27;20388;-84
2024/04/19 07:03:33;;;;;;;;;;;5.50;99.90;;;;;;8560181;27;19934;-85
2024/04/19 07:07:33;;;;;;;;;;;5.50;99.90;;;;;;8563147;27;19928;-84
2024/04/19 07:11:33;;;;;;;;;;;5.50;99.90;;;;;;8587541;27;19936;-83
2024/04/19 07:15:39;;;;;;;;;;;5.60;99.90;;;;;;8596981;27;20326;-87
2024/04/19 07:19:39;;;;;;;;;;;5.70;99.90;;;;;;8569858;27;19935;-82
2024/04/19 07:23:40;;;;;;;;;;;5.70;99.90;;;;;;8580594;27;20290;-85
2024/04/19 07:27:40;;;;;;;;;;;5.90;99.90;;;;;;8556196;27;20370;-86
2024/04/19 07:31:41;;;;;;;;;;;5.80;99.90;;;;;;8592432;27;19929;-85
2024/04/19 07:35:41;;;;;;;;;;;5.80;99.90;;;;;;8585948;27;19935;-84
2024/04/19 07:39:42;;;;;;;;;;;5.90;99.90;;;;;;8567433;27;20365;-84
2024/04/19 07:43:42;;;;;;;;;;;6.00;99.90;;;;;;8592099;27;20356;-85
2024/04/19 07:47:43;;;;;;;;;;;5.90;99.90;;;;;;8592770;27;19932;-86
2024/04/19 07:51:43;;;;;;;;;;;6.00;99.90;;;;;;8594174;27;20007;-83
2024/04/19 07:55:44;;;;;;;;;;;6.30;99.90;;;;;;8593765;27;20267;-88
2024/04/19 07:59:44;;;;;;;;;;;6.80;99.90;;;;;;8574255;27;20342;-85
2024/04/19 08:03:48;;;;;;;;;;;6.60;99.90;;;;;;8563752;27;19954;-83
2024/04/19 08:07:51;;;;;;;;;;;6.60;99.90;;;;;;8567657;27;19936;-87
2024/04/19 08:11:52;;;;;;;;;;;6.80;99.90;;;;;;8598757;27;19939;-85
2024/04/19 08:15:52;;;;;;;;;;;7.10;99.90;;;;;;8567757;27;19928;-86
2024/04/19 08:19:53;;;;;;;;;;;7.30;99.90;;;;;;8566455;27;20437;-84
2024/04/19 08:23:53;;;;;;;;;;;7.20;99.90;;;;;;8570620;27;19935;-85
2024/04/19 08:27:54;;;;;;;;;;;7.00;99.90;;;;;;8591839;27;19929;-84
2024/04/19 08:31:54;;;;;;;;;;;6.90;99.90;;;;;;8555910;27;19957;-84
2024/04/19 08:35:58;;;;;;;;;;;7.20;99.90;;;;;;8594644;27;19928;-87
2024/04/19 08:39:59;;;;;;;;;;;7.50;99.90;;;;;;8565704;27;20298;-83
2024/04/19 08:44:00;;;;;;;;;;;7.40;99.90;;;;;;8595772;27;19928;-86
2024/04/19 08:48:00;;;;;;;;;;;7.40;99.90;;;;;;8564474;27;20369;-87
2024/04/19 08:52:02;;;;;;;;;;;7.80;99.90;;;;;;8561892;27;19928;-86
2024/04/19 08:56:03;;;;;;;;;;;8.00;99.90;;;;;;8566588;27;19929;-88
2024/04/19 09:00:04;;;;;;;;;;;7.90;99.90;;;;;;8564707;27;19928;-85
2024/04/19 09:04:05;;;;;;;;;;;8.20;99.90;;;;;;8562488;27;19936;-85
2024/04/19 09:08:05;;;;;;;;;;;8.40;99.90;;;;;;8590357;27;19936;-86
2024/04/19 09:12:08;;;;;;;;;;;8.20;99.90;;;;;;8560768;27;19936;-86
2024/04/19 09:16:09;;;;;;;;;;;8.10;99.90;;;;;;8574909;27;19936;-84
2024/04/19 09:20:10;;;;;;;;;;;8.00;99.90;;;;;;8568180;27;20370;-87
2024/04/19 09:24:10;;;;;;;;;;;8.00;99.90;;;;;;8586519;27;20306;-84
2024/04/19 09:28:14;;;;;;;;;;;8.20;99.90;;;;;;8595167;27;19928;-85
2024/04/19 09:32:18;;;;;;;;;;;7.90;99.90;;;;;;8580529;27;19928;-88
2024/04/19 09:36:18;;;;;;;;;;;7.50;99.90;;;;;;8591158;27;19928;-84
2024/04/19 09:40:20;;;;;;;;;;;7.50;99.90;;;;;;8563184;27;20277;-86
2024/04/19 09:44:22;;;;;;;;;;;7.70;99.90;;;;;;8568617;27;19997;-84
2024/04/19 09:48:26;;;;;;;;;;;7.70;99.90;;;;;;8573863;27;20368;-84
2024/04/19 09:52:29;;;;;;;;;;;7.60;99.90;;;;;;8566800;27;19939;-84
2024/04/19 09:56:33;;;;;;;;;;;7.30;99.90;;;;;;8585169;27;20289;-86
2024/04/19 10:00:33;;;;;;;;;;;7.10;99.90;;;;;;8566709;27;20238;-86
2024/04/19 10:04:34;;;;;;;;;;;7.10;99.90;;;;;;8582665;27;19968;-85
2024/04/19 10:08:35;;;;;;;;;;;7.30;99.90;;;;;;8600989;27;19936;-84
2024/04/19 10:12:36;;;;;;;;;;;8.00;99.90;;;;;;8569311;27;19928;-85
2024/04/19 10:16:39;;;;;;;;;;;8.10;99.90;;;;;;8593100;27;19928;-87
2024/04/19 10:20:40;;;;;;;;;;;8.10;99.90;;;;;;8578199;27;19934;-84
2024/04/19 10:24:41;;;;;;;;;;;7.80;99.90;;;;;;8589386;27;19953;-83
2024/04/19 10:28:47;;;;;;;;;;;7.70;99.90;;;;;;8599924;27;19996;-84
2024/04/19 10:32:57;;;;;;;;;;;7.50;99.90;;;;;;8587416;27;20385;-83
2024/04/19 10:36:57;;;;;;;;;;;7.80;99.90;;;;;;8600340;27;19996;-84
2024/04/19 10:40:58;;;;;;;;;;;8.20;99.90;;;;;;8550154;27;19960;-83
2024/04/19 10:44:58;;;;;;;;;;;7.80;99.90;;;;;;8566233;27;19935;-88
2024/04/19 10:48:59;;;;;;;;;;;7.60;99.90;;;;;;8571542;27;19933;-84
2024/04/19 10:52:59;;;;;;;;;;;7.40;99.90;;;;;;8581975;27;19932;-85
2024/04/19 10:57:00;;;;;;;;;;;7.30;99.90;;;;;;8569823;27;20138;-86
2024/04/19 11:01:01;;;;;;;;;;;7.30;99.90;;;;;;8561934;27;19943;-84
2024/04/19 11:05:02;;;;;;;;;;;7.10;99.90;;;;;;8598180;27;20262;-85
2024/04/19 11:09:03;;;;;;;;;;;7.20;99.90;;;;;;8571077;27;19949;-84
2024/04/19 11:13:04;;;;;;;;;;;7.20;99.90;;;;;;8568152;27;19928;-84
2024/04/19 11:17:04;;;;;;;;;;;7.20;99.90;;;;;;8596156;27;19978;-84
2024/04/19 11:21:05;;;;;;;;;;;7.20;99.90;;;;;;8575244;27;19929;-83
2024/04/19 11:25:07;;;;;;;;;;;7.20;99.90;;;;;;8582641;27;19971;-85
2024/04/19 11:29:07;;;;;;;;;;;7.20;99.90;;;;;;8559758;27;19978;-84
2024/04/19 11:33:08;;;;;;;;;;;6.80;99.90;;;;;;8570283;27;19936;-84
2024/04/19 11:37:12;;;;;;;;;;;6.60;99.90;;;;;;8561476;27;19980;-85
2024/04/19 11:41:13;;;;;;;;;;;6.50;99.90;;;;;;8578780;27;19936;-83
2024/04/19 11:45:14;;;;;;;;;;;6.30;99.90;;;;;;8571205;27;19936;-86
2024/04/19 11:49:15;;;;;;;;;;;6.10;99.90;;;;;;8568779;27;19941;-83
2024/04/19 11:53:15;;;;;;;;;;;5.80;99.90;;;;;;8583323;27;19947;-84
2024/04/19 11:57:15;;;;;;;;;;;5.80;99.90;;;;;;8571720;27;20768;-85
2024/04/19 12:01:16;;;;;;;;;;;5.80;99.90;;;;;;8568231;27;19934;-83
2024/04/19 12:05:17;;;;;;;;;;;5.90;99.90;;;;;;8576782;27;20258;-83
2024/04/19 12:09:17;;;;;;;;;;;5.90;99.90;;;;;;8592594;27;19929;-84
2024/04/19 12:13:18;;;;;;;;;;;5.90;99.90;;;;;;8577459;27;20182;-83
2024/04/19 12:17:18;;;;;;;;;;;5.80;99.90;;;;;;8595632;27;19928;-84
2024/04/19 12:21:19;;;;;;;;;;;5.70;99.90;;;;;;8591419;27;19936;-84
2024/04/19 12:25:20;;;;;;;;;;;5.70;99.90;;;;;;8571592;27;19943;-81
2024/04/19 12:29:20;;;;;;;;;;;5.70;99.90;;;;;;8586024;27;19935;-82
2024/04/19 12:33:21;;;;;;;;;;;5.80;99.90;;;;;;8589171;27;19943;-83
2024/04/19 12:37:21;;;;;;;;;;;5.60;99.90;;;;;;8592190;27;19936;-83
2024/04/19 12:41:22;;;;;;;;;;;5.70;99.90;;;;;;8595283;27;19936;-83
2024/04/19 12:45:23;;;;;;;;;;;5.80;99.90;;;;;;8568469;27;20409;-87
2024/04/19 12:49:25;;;;;;;;;;;6.00;99.90;;;;;;8593211;27;19936;-85
2024/04/19 12:53:26;;;;;;;;;;;5.80;99.90;;;;;;8560747;27;19935;-82
2024/04/19 12:57:27;;;;;;;;;;;5.60;99.90;;;;;;8572453;27;19928;-84
2024/04/19 13:01:27;;;;;;;;;;;5.60;99.90;;;;;;8570708;27;19968;-83
2024/04/19 13:05:29;;;;;;;;;;;5.40;99.90;;;;;;8572170;27;19928;-84
2024/04/19 13:09:29;;;;;;;;;;;5.50;99.90;;;;;;8584705;27;19928;-84
2024/04/19 13:13:49;;;;;;;;;;;5.50;99.90;;;;;;8582637;27;19935;-84
2024/04/19 13:17:49;;;;;;;;;;;5.50;99.90;;;;;;8567959;27;19964;-85
2024/04/19 13:21:50;;;;;;;;;;;5.40;99.90;;;;;;8558035;27;19996;-83
2024/04/19 13:25:50;;;;;;;;;;;5.20;99.90;;;;;;8589245;27;19947;-85
2024/04/19 13:29:52;;;;;;;;;;;5.00;99.90;;;;;;8590240;27;19929;-83
2024/04/19 13:33:53;;;;;;;;;;;5.10;99.90;;;;;;8568543;27;19935;-84
2024/04/19 13:37:54;;;;;;;;;;;5.10;99.90;;;;;;8596489;27;20378;-87
2024/04/19 13:41:55;;;;;;;;;;;5.10;99.90;;;;;;8597666;27;19928;-86
2024/04/19 13:45:56;;;;;;;;;;;5.00;99.90;;;;;;8570229;27;19971;-84
2024/04/19 13:49:57;;;;;;;;;;;5.00;99.90;;;;;;8566421;27;20389;-84
2024/04/19 13:53:57;;;;;;;;;;;5.00;99.90;;;;;;8570343;27;19963;-83
2024/04/19 13:57:58;;;;;;;;;;;5.00;99.90;;;;;;8577898;27;19956;-86
2024/04/19 14:01:58;;;;;;;;;;;4.90;99.90;;;;;;8585055;27;19928;-84
2024/04/19 14:05:59;;;;;;;;;;;5.00;99.90;;;;;;8561502;27;19928;-84
2024/04/19 14:09:59;;;;;;;;;;;5.10;99.90;;;;;;8594944;27;19936;-83
2024/04/19 14:14:00;;;;;;;;;;;5.00;99.90;;;;;;8568206;27;19935;-84
2024/04/19 14:18:00;;;;;;;;;;;4.80;99.90;;;;;;8573808;27;19971;-85
2024/04/19 14:22:01;;;;;;;;;;;4.80;99.90;;;;;;8572337;27;19932;-83
2024/04/19 14:26:02;;;;;;;;;;;4.80;99.90;;;;;;8561310;27;20026;-84
2024/04/19 14:30:03;;;;;;;;;;;4.90;99.90;;;;;;8592826;27;20297;-84
2024/04/19 14:34:03;;;;;;;;;;;4.70;99.90;;;;;;8584550;27;19937;-81
2024/04/19 14:38:04;;;;;;;;;;;4.80;99.90;;;;;;8580294;27;20357;-83
2024/04/19 14:42:04;;;;;;;;;;;4.70;99.90;;;;;;8568460;27;20471;-83
2024/04/19 14:46:06;;;;;;;;;;;4.60;99.90;;;;;;8600602;27;19936;-85
2024/04/19 14:50:06;;;;;;;;;;;4.50;99.90;;;;;;8572056;27;20277;-83
2024/04/19 14:54:07;;;;;;;;;;;4.60;99.90;;;;;;8600792;27;19928;-83
2024/04/19 14:58:07;;;;;;;;;;;4.60;99.90;;;;;;8595871;27;20004;-82
2024/04/19 15:02:08;;;;;;;;;;;4.70;99.90;;;;;;8589595;27;19936;-82
2024/04/19 15:06:11;;;;;;;;;;;4.80;99.90;;;;;;8591651;27;19928;-82
2024/04/19 15:10:12;;;;;;;;;;;4.60;99.90;;;;;;8591237;27;19939;-82
2024/04/19 15:14:12;;;;;;;;;;;4.50;99.90;;;;;;8616693;27;19935;-81
2024/04/19 15:18:12;;;;;;;;;;;4.60;99.90;;;;;;8622723;27;19936;-80
2024/04/19 15:22:13;;;;;;;;;;;4.50;99.90;;;;;;8659315;22;20092;-84
2024/04/19 15:26:13;;;;;;;;;;;4.50;99.90;;;;;;8627821;27;19956;-86
2024/04/19 15:30:37;;;;;;;;;;;4.50;99.90;;;;;;8633954;27;19985;-85
2024/04/19 15:34:35;;;;;;;;;;;4.60;99.90;;;;;;8618814;27;19980;-85
2024/04/19 15:38:35;;;;;;;;;;;4.50;99.90;;;;;;8580477;27;20113;-85
2024/04/19 15:42:36;;;;;;;;;;;4.60;99.90;;;;;;8586880;27;19935;-88
2024/04/19 15:46:39;;;;;;;;;;;4.60;99.90;;;;;;8602437;27;20279;-85
2024/04/19 15:50:43;;;;;;;;;;;4.50;99.90;;;;;;8611539;27;19999;-86
2024/04/19 15:55:09;;;;;;;;;;;4.60;99.90;;;;;;8576403;27;19928;-87
2024/04/19 15:59:30;;;;;;;;;;;4.60;99.90;;;;;;8611034;27;19928;-86
2024/04/19 16:03:30;;;;;;;;;;;5.10;99.90;;;;;;8622385;27;19935;-83
2024/04/19 16:07:30;;;;;;;;;;;4.60;99.90;;;;;;8602550;27;19928;-86
2024/04/19 16:11:34;;;;;;;;;;;4.50;99.90;;;;;;8592268;27;19935;-86
2024/04/19 16:15:44;;;;;;;;;;;4.50;99.90;;;;;;8584988;27;19937;-81
2024/04/19 16:19:44;;;;;;;;;;;4.80;99.90;;;;;;8617656;27;19936;-85
2024/04/19 16:23:55;;;;;;;;;;;4.60;99.90;;;;;;8594969;27;19928;-89
2024/04/19 16:27:56;;;;;;;;;;;4.50;99.90;;;;;;8599530;27;19928;-83
2024/04/19 16:31:56;;;;;;;;;;;4.60;99.90;;;;;;8625140;27;19928;-86
2024/04/19 16:36:09;;;;;;;;;;;4.60;99.90;;;;;;8593884;27;19928;-86
2024/04/19 16:40:09;;;;;;;;;;;4.70;99.90;;;;;;8577999;27;19928;-85
2024/04/19 16:44:10;;;;;;;;;;;4.70;99.90;;;;;;8607359;27;19928;-87
2024/04/19 16:48:14;;;;;;;;;;;4.60;99.90;;;;;;8588591;27;19928;-89
2024/04/19 16:52:29;;;;;;;;;;;4.50;99.90;;;;;;8606206;27;19935;-88
2024/04/19 16:56:32;;;;;;;;;;;4.40;99.90;;;;;;8615776;27;19936;-87
2024/04/19 17:00:32;;;;;;;;;;;4.40;99.90;;;;;;8590474;27;20261;-84
2024/04/19 17:04:43;;;;;;;;;;;4.40;99.90;;;;;;8589022;27;19936;-85
2024/04/19 17:08:43;;;;;;;;;;;4.40;99.90;;;;;;8617644;27;19928;-84
2024/04/19 17:12:44;;;;;;;;;;;4.30;99.90;;;;;;8590865;27;19928;-85
2024/04/19 17:16:46;;;;;;;;;;;4.40;99.90;;;;;;8615679;27;19939;-88
2024/04/19 17:20:47;;;;;;;;;;;4.40;99.90;;;;;;8630398;27;19957;-84
2024/04/19 17:24:48;;;;;;;;;;;4.40;99.90;;;;;;8612260;27;19940;-82
2024/04/19 17:28:52;;;;;;;;;;;4.40;99.90;;;;;;8601635;27;19935;-87
2024/04/19 17:32:52;;;;;;;;;;;4.50;99.90;;;;;;8615980;27;19947;-84
2024/04/19 17:36:58;;;;;;;;;;;4.40;99.90;;;;;;8591196;27;19991;-87
2024/04/19 17:41:02;;;;;;;;;;;4.40;99.90;;;;;;8608820;27;19934;-85
2024/04/19 17:45:03;;;;;;;;;;;4.40;99.90;;;;;;8599033;27;20362;-83
2024/04/19 17:49:04;;;;;;;;;;;4.40;99.90;;;;;;8612505;27;19935;-86
2024/04/19 17:53:04;;;;;;;;;;;4.40;99.90;;;;;;8588823;27;20591;-84
2024/04/19 17:57:05;;;;;;;;;;;4.40;99.90;;;;;;8615959;27;19956;-86
2024/04/19 18:01:05;;;;;;;;;;;4.40;99.90;;;;;;8596597;27;19935;-87
2024/04/19 18:05:06;;;;;;;;;;;4.50;99.90;;;;;;8624574;27;19936;-87
2024/04/19 18:09:06;;;;;;;;;;;4.50;99.90;;;;;;8584104;27;19936;-87
2024/04/19 18:13:07;;;;;;;;;;;4.40;99.90;;;;;;8593912;27;20376;-87
2024/04/19 18:17:07;;;;;;;;;;;4.60;99.90;;;;;;8575453;27;19928;-86
2024/04/19 18:21:08;;;;;;;;;;;4.50;99.90;;;;;;8616804;27;19935;-86
2024/04/19 18:25:08;;;;;;;;;;;4.50;99.90;;;;;;8615547;27;19968;-85
2024/04/19 18:29:09;;;;;;;;;;;4.50;99.90;;;;;;8610255;27;19935;-86
2024/04/19 18:33:12;;;;;;;;;;;4.40;99.90;;;;;;8585167;27;19973;-86
2024/04/19 18:37:13;;;;;;;;;;;4.40;99.90;;;;;;8600937;27;19936;-86
2024/04/19 18:41:13;;;;;;;;;;;4.30;99.90;;;;;;8613693;27;20003;-86
2024/04/19 18:45:16;;;;;;;;;;;4.40;99.90;;;;;;8592747;27;19965;-87
2024/04/19 18:49:17;;;;;;;;;;;4.30;99.90;;;;;;8611100;27;19928;-87
2024/04/19 18:53:19;;;;;;;;;;;4.40;99.90;;;;;;8585675;27;20006;-86
2024/04/19 18:57:20;;;;;;;;;;;4.40;99.90;;;;;;8589880;27;19939;-87
2024/04/19 19:01:20;;;;;;;;;;;4.40;99.90;;;;;;8607894;27;19936;-85
2024/04/19 19:05:21;;;;;;;;;;;4.40;99.90;;;;;;8589943;27;19928;-87
2024/04/19 19:09:22;;;;;;;;;;;4.40;99.90;;;;;;8582194;27;19928;-87
2024/04/19 19:13:35;;;;;;;;;;;4.30;99.90;;;;;;8586586;27;20359;-87
2024/04/19 19:17:39;;;;;;;;;;;4.40;99.90;;;;;;8603246;27;19972;-87
2024/04/19 19:22:06;;;;;;;;;;;4.40;99.90;;;;;;8608455;27;20032;-87
2024/04/19 19:26:12;;;;;;;;;;;4.40;99.90;;;;;;8602678;27;19936;-86
2024/04/19 19:30:13;;;;;;;;;;;4.70;99.90;;;;;;8600986;27;19928;-86
2024/04/19 19:34:26;;;;;;;;;;;;;;;;;;;;;
2024/04/19 19:38:37;;;;;;;;;;;4.40;99.90;;;;;;8598497;27;19934;-87
2024/04/19 19:42:37;;;;;;;;;;;4.40;99.90;;;;;;8565099;27;19937;-88
2024/04/19 19:46:40;;;;;;;;;;;5.20;99.90;;;;;;8580679;27;20119;-87
2024/04/19 19:50:40;;;;;;;;;;;4.50;99.90;;;;;;8608596;27;19943;-87
2024/04/19 19:54:44;;;;;;;;;;;4.60;99.90;;;;;;8581058;27;19928;-86
2024/04/19 19:58:45;;;;;;;;;;;4.70;99.90;;;;;;8581576;27;20005;-87
2024/04/19 20:07:08;;;;;;;;;;;4.70;99.90;;;;;;8594167;27;19935;-86
2024/04/19 20:11:09;;;;;;;;;;;4.80;99.90;;;;;;8612458;27;19960;-85
2024/04/19 20:15:09;;;;;;;;;;;4.90;99.90;;;;;;8614568;27;19932;-87
2024/04/19 20:19:10;;;;;;;;;;;4.90;99.90;;;;;;8614664;27;19928;-86
2024/04/19 20:23:10;;;;;;;;;;;4.90;99.90;;;;;;8589691;27;19956;-87
2024/04/19 20:27:11;;;;;;;;;;;4.80;99.90;;;;;;8589581;27;19936;-87
2024/04/19 20:31:13;;;;;;;;;;;4.90;99.90;;;;;;8599391;27;20002;-87
2024/04/19 20:35:45;;;;;;;;;;;4.70;99.90;;;;;;8603202;27;19940;-85
2024/04/19 20:39:46;;;;;;;;;;;4.80;99.90;;;;;;8609497;27;20290;-84
2024/04/19 20:43:46;;;;;;;;;;;4.70;99.90;;;;;;8576751;27;20238;-89
2024/04/19 20:47:47;;;;;;;;;;;4.70;99.90;;;;;;8581944;27;19956;-89
2024/04/19 20:51:47;;;;;;;;;;;4.70;99.90;;;;;;8606619;27;19935;-88
2024/04/19 20:55:48;;;;;;;;;;;4.80;99.90;;;;;;8599401;27;19968;-84
2024/04/19 20:59:48;;;;;;;;;;;4.70;99.90;;;;;;8604444;27;19999;-83
2024/04/19 21:03:49;;;;;;;;;;;4.70;99.90;;;;;;8619560;27;20488;-85
2024/04/19 21:07:53;;;;;;;;;;;4.50;99.90;;;;;;8587991;27;20000;-88
2024/04/19 21:11:53;;;;;;;;;;;4.30;99.90;;;;;;8586960;27;19929;-87
2024/04/19 21:16:01;;;;;;;;;;;4.50;99.90;;;;;;8613195;27;19935;-88
2024/04/19 21:20:02;;;;;;;;;;;4.40;99.90;;;;;;8618573;27;19928;-89
2024/04/19 21:24:05;;;;;;;;;;;4.30;99.90;;;;;;8610172;27;19935;-89
2024/04/19 21:28:06;;;;;;;;;;;4.20;99.90;;;;;;8590068;27;19952;-90
2024/04/19 21:32:06;;;;;;;;;;;4.20;99.90;;;;;;8600327;27;19999;-90
2024/04/19 21:36:08;;;;;;;;;;;4.00;99.90;;;;;;8625609;22;19940;-85
2024/04/19 21:40:09;;;;;;;;;;;3.90;99.90;;;;;;8565320;27;20282;-85
2024/04/19 21:44:09;;;;;;;;;;;3.80;99.90;;;;;;8563187;27;19935;-86
2024/04/19 21:48:10;;;;;;;;;;;3.60;99.90;;;;;;8565692;27;19929;-85
2024/04/19 21:52:10;;;;;;;;;;;3.90;99.90;;;;;;8563902;27;19949;-85
2024/04/19 21:56:11;;;;;;;;;;;4.10;99.90;;;;;;8572831;27;19929;-85
2024/04/19 22:00:11;;;;;;;;;;;4.00;99.90;;;;;;8543817;27;19993;-84
2024/04/19 22:04:12;;;;;;;;;;;4.10;99.90;;;;;;8585670;27;19928;-83
2024/04/19 22:08:12;;;;;;;;;;;4.10;99.90;;;;;;8548393;27;20367;-85
2024/04/19 22:12:13;;;;;;;;;;;4.00;99.90;;;;;;8572155;27;19928;-83
2024/04/19 22:16:14;;;;;;;;;;;3.70;99.90;;;;;;8579302;27;19973;-84
2024/04/19 22:20:14;;;;;;;;;;;3.50;99.90;;;;;;8561292;27;19935;-84
2024/04/19 22:24:16;;;;;;;;;;;3.30;99.90;;;;;;8548948;27;19935;-84
2024/04/19 22:28:16;;;;;;;;;;;2.80;99.90;;;;;;8578652;27;19999;-85
2024/04/19 22:32:17;;;;;;;;;;;2.30;99.90;;;;;;8574144;27;19944;-83
2024/04/19 22:36:17;;;;;;;;;;;2.30;99.90;;;;;;8587099;27;19944;-83
2024/04/19 22:40:18;;;;;;;;;;;2.10;99.90;;;;;;8564448;27;19961;-84
2024/04/19 22:44:18;;;;;;;;;;;2.00;99.90;;;;;;8543177;27;19928;-85
2024/04/19 22:48:19;;;;;;;;;;;2.20;99.90;;;;;;8571069;27;19929;-85
2024/04/19 22:52:19;;;;;;;;;;;2.20;99.90;;;;;;8572514;27;19928;-84
2024/04/19 22:56:20;;;;;;;;;;;2.10;99.90;;;;;;8577225;27;19935;-86
2024/04/19 23:00:20;;;;;;;;;;;2.30;99.90;;;;;;8579236;27;19929;-85
2024/04/19 23:04:20;;;;;;;;;;;2.60;99.90;;;;;;8540209;27;19929;-84
2024/04/19 23:08:21;;;;;;;;;;;2.50;99.90;;;;;;8571956;27;19928;-85
2024/04/19 23:12:21;;;;;;;;;;;2.40;99.90;;;;;;8581524;27;20069;-85
2024/04/19 23:16:22;;;;;;;;;;;2.40;99.90;;;;;;8543472;27;19940;-85
2024/04/19 23:20:22;;;;;;;;;;;2.50;99.90;;;;;;8575032;27;19936;-85
2024/04/19 23:24:23;;;;;;;;;;;2.40;99.90;;;;;;8572135;27;20008;-86
2024/04/19 23:28:23;;;;;;;;;;;2.60;99.90;;;;;;8579364;27;19930;-86
2024/04/19 23:32:24;;;;;;;;;;;2.60;99.90;;;;;;8541396;27;19934;-86
2024/04/19 23:36:24;;;;;;;;;;;2.70;99.90;;;;;;8581560;27;19936;-85
2024/04/19 23:40:24;;;;;;;;;;;2.70;99.90;;;;;;8576153;27;19936;-85
2024/04/19 23:44:25;;;;;;;;;;;2.90;99.90;;;;;;8582692;27;20389;-84
2024/04/19 23:48:25;;;;;;;;;;;3.00;99.90;;;;;;8536802;27;19936;-85
2024/04/19 23:52:26;;;;;;;;;;;2.80;99.90;;;;;;8565897;27;19928;-85
2024/04/19 23:56:26;;;;;;;;;;;2.60;99.90;;;;;;8544386;27;19940;-84
